Time;durP1;ratioP1;P1;durP2;ratioP2;P2;SDS_P1;SDS_P2;PMS_P1;PMS_P2;Temp;Humidity;BMP_temperature;BMP_pressure;BME280_temperature;BME280_humidity;BME280_pressure;Samples;Min_cycle;Max_cycle;Signal;HPM_P1;HPM_P2
2023/02/11 00:06:42;;;;;;;32.1;19.1;;;;;;;-2;76.4;100450;;;;
2023/02/11 00:16:42;;;;;;;22.9;13.9;;;;;;;-2.1;77;100440;;;;
2023/02/11 00:26:42;;;;;;;22.9;13.9;;;;;;;-2.2;77.2;100440;;;;
2023/02/11 00:36:42;;;;;;;22.9;13.9;;;;;;;-2.2;77.6;100420;;;;
2023/02/11 00:47:42;;;;;;;26;13.9;;;;;;;-2.2;77.8;100410;;;;
2023/02/11 00:58:42;;;;;;;26;13.9;;;;;;;-2.3;77.9;100390;;;;
2023/02/11 01:09:42;;;;;;;20.8;12.7;;;;;;;-2.2;78.5;100370;;;;
2023/02/11 01:19:42;;;;;;;20.8;12.7;;;;;;;-2.1;78.6;100330;;;;
2023/02/11 01:29:42;;;;;;;20.8;12.7;;;;;;;-1.9;78.5;100310;;;;
2023/02/11 01:40:42;;;;;;;24.4;14;;;;;;;-1.8;78;100310;;;;
2023/02/11 01:50:42;;;;;;;24.4;14;;;;;;;-1.7;77.5;100290;;;;
2023/02/11 02:00:42;;;;;;;24.4;14;;;;;;;-1.7;77.3;100280;;;;
2023/02/11 02:11:42;;;;;;;30.5;14.1;;;;;;;-1.5;77.2;100260;;;;
2023/02/11 02:21:44;;;;;;;30.5;14.1;;;;;;;-1.4;76.8;100250;;;;
2023/02/11 02:32:42;;;;;;;30.5;14.1;;;;;;;-1.4;76.3;100270;;;;
2023/02/11 02:42:42;;;;;;;23.5;13.6;;;;;;;-1.4;76.2;100270;;;;
2023/02/11 02:53:42;;;;;;;23.5;13.6;;;;;;;-1.3;76.3;100240;;;;
2023/02/11 03:03:42;;;;;;;23.5;13.6;;;;;;;-1.2;76.3;100220;;;;
2023/02/11 03:13:42;;;;;;;28.9;14.2;;;;;;;-1.1;76;100210;;;;
2023/02/11 03:23:42;;;;;;;28.9;14.2;;;;;;;-1;76.1;100170;;;;
2023/02/11 03:34:42;;;;;;;28.9;14.2;;;;;;;-1;76.5;100110;;;;
2023/02/11 03:44:42;;;;;;;23.6;14.5;;;;;;;-0.9;76.2;100100;;;;
2023/02/11 03:55:42;;;;;;;23.6;14.5;;;;;;;-0.8;76.5;100090;;;;
2023/02/11 04:06:42;;;;;;;20.1;11.9;;;;;;;-0.5;76.2;100100;;;;
2023/02/11 04:16:42;;;;;;;20.1;11.9;;;;;;;-0.3;76.1;100070;;;;
2023/02/11 04:27:42;;;;;;;20.1;11.9;;;;;;;-0.2;75.9;100050;;;;
2023/02/11 04:37:42;;;;;;;17.8;10.4;;;;;;;-0.1;75.9;100010;;;;
2023/02/11 04:48:42;;;;;;;17.8;10.4;;;;;;;0;75.7;100010;;;;
2023/02/11 04:58:42;;;;;;;17.8;10.4;;;;;;;0.1;75.7;100010;;;;
2023/02/11 05:09:42;;;;;;;16.1;10.3;;;;;;;0.2;75;100040;;;;
2023/02/11 05:20:42;;;;;;;16.1;10.3;;;;;;;0.2;75;100040;;;;
2023/02/11 05:30:42;;;;;;;16.1;10.3;;;;;;;0.1;75.3;100020;;;;
2023/02/11 05:40:42;;;;;;;20.7;11.7;;;;;;;0;75.8;100020;;;;
2023/02/11 05:51:42;;;;;;;20.7;11.7;;;;;;;-0.1;75.9;100030;;;;
2023/02/11 06:02:42;;;;;;;20.7;11.7;;;;;;;-0.2;75.7;100020;;;;
2023/02/11 06:12:42;;;;;;;24.7;16.1;;;;;;;-0.2;75.8;100040;;;;
2023/02/11 06:23:42;;;;;;;24.7;16.1;;;;;;;-0.2;75.8;100010;;;;
2023/02/11 06:33:42;;;;;;;24.7;16.1;;;;;;;-0.3;76.5;99950;;;;
2023/02/11 06:43:42;;;;;;;31.2;18.4;;;;;;;-0.1;76.2;99930;;;;
2023/02/11 06:53:42;;;;;;;31.2;18.4;;;;;;;0.3;74.9;99940;;;;
2023/02/11 07:03:42;;;;;;;31.2;18.4;;;;;;;0.6;74.1;99940;;;;
2023/02/11 07:14:42;;;;;;;16.8;10.1;;;;;;;1;73.2;99950;;;;
2023/02/11 07:25:42;;;;;;;16.8;10.1;;;;;;;1.1;72.8;99960;;;;
2023/02/11 07:36:42;;;;;;;18;11.2;;;;;;;1.3;71.9;99950;;;;
2023/02/11 07:47:42;;;;;;;18;11.2;;;;;;;1.3;71.7;99930;;;;
2023/02/11 07:57:42;;;;;;;18;11.2;;;;;;;1.3;71.8;99930;;;;
2023/02/11 08:07:42;;;;;;;27.5;16.6;;;;;;;1.2;72.4;99940;;;;
2023/02/11 08:18:42;;;;;;;27.5;16.6;;;;;;;1.2;71.9;99930;;;;
2023/02/11 08:28:42;;;;;;;27.5;16.6;;;;;;;1.4;71.4;99910;;;;
2023/02/11 08:38:42;;;;;;;31.8;20.6;;;;;;;1.6;70.9;99900;;;;
2023/02/11 08:48:42;;;;;;;31.8;20.6;;;;;;;2;69.7;99910;;;;
2023/02/11 08:59:42;;;;;;;31.8;20.6;;;;;;;2.5;68.4;99920;;;;
2023/02/11 09:10:42;;;;;;;26;16.5;;;;;;;3.1;67.5;99900;;;;
2023/02/11 09:20:42;;;;;;;26;16.5;;;;;;;3.6;65.3;99890;;;;
2023/02/11 09:31:42;;;;;;;26;16.5;;;;;;;4.6;61.7;99880;;;;
2023/02/11 09:42:42;;;;;;;24.3;17.4;;;;;;;5;59.3;99890;;;;
2023/02/11 09:52:41;;;;;;;24.3;17.4;;;;;;;5.2;58.1;99910;;;;
2023/02/11 10:02:43;;;;;;;24.3;17.4;;;;;;;5.4;58.4;99910;;;;
2023/02/11 10:13:41;;;;;;;20.9;16.8;;;;;;;5.3;58.2;99900;;;;
2023/02/11 10:23:41;;;;;;;20.9;16.8;;;;;;;5.4;58.3;99860;;;;
2023/02/11 10:33:41;;;;;;;20.9;16.8;;;;;;;5.2;58.6;99850;;;;
2023/02/11 10:44:42;;;;;;;24.3;18.1;;;;;;;5.6;59.2;99820;;;;
2023/02/11 10:55:41;;;;;;;24.3;18.1;;;;;;;5.7;58.6;99790;;;;
2023/02/11 11:05:41;;;;;;;28.2;21.5;;;;;;;6.3;58.1;99770;;;;
2023/02/11 11:15:41;;;;;;;28.2;21.5;;;;;;;6.4;56.2;99730;;;;
2023/02/11 11:25:42;;;;;;;28.2;21.5;;;;;;;6.2;56.5;99690;;;;
2023/02/11 11:35:41;;;;;;;21.9;17.4;;;;;;;6.3;56.1;99710;;;;
2023/02/11 11:46:41;;;;;;;21.9;17.4;;;;;;;6.5;55.6;99700;;;;
2023/02/11 11:56:41;;;;;;;21.9;17.4;;;;;;;6.3;56.4;99710;;;;
2023/02/11 12:06:41;;;;;;;23.4;18.4;;;;;;;5.9;57.8;99720;;;;
2023/02/11 12:16:42;;;;;;;23.4;18.4;;;;;;;6.1;58.9;99730;;;;
2023/02/11 12:27:41;;;;;;;23.4;18.4;;;;;;;5.8;60.5;99740;;;;
2023/02/11 12:37:41;;;;;;;26.9;20.8;;;;;;;5.7;62.3;99750;;;;
2023/02/11 12:48:41;;;;;;;26.9;20.8;;;;;;;5.6;63.8;99730;;;;
2023/02/11 12:59:41;;;;;;;26.9;20.8;;;;;;;5.3;64.8;99700;;;;
2023/02/11 13:10:41;;;;;;;25.2;21.2;;;;;;;5.2;65.4;99640;;;;
2023/02/11 13:21:41;;;;;;;25.2;21.2;;;;;;;4.9;68.3;99650;;;;
2023/02/11 13:31:41;;;;;;;25.2;21.2;;;;;;;4.8;70;99670;;;;
2023/02/11 13:41:43;;;;;;;22.2;18.4;;;;;;;4.7;71.3;99630;;;;
2023/02/11 13:52:42;;;;;;;22.2;18.4;;;;;;;4.8;71;99620;;;;
2023/02/11 14:13:41;;;;;;;23.2;19.4;;;;;;;4.9;70.7;99590;;;;
2023/02/11 14:23:41;;;;;;;23.2;19.4;;;;;;;4.9;70.4;99620;;;;
2023/02/11 14:33:41;;;;;;;23.2;19.4;;;;;;;4.8;71.1;99650;;;;
2023/02/11 14:43:41;;;;;;;29.9;21.8;;;;;;;4.6;72;99670;;;;
2023/02/11 14:53:41;;;;;;;29.9;21.8;;;;;;;4.5;72.4;99670;;;;
2023/02/11 15:04:42;;;;;;;32.2;24.9;;;;;;;4.4;73.3;99660;;;;
2023/02/11 15:14:41;;;;;;;32.2;24.9;;;;;;;4.2;74;99670;;;;
2023/02/11 15:25:41;;;;;;;32.2;24.9;;;;;;;4;75.9;99680;;;;
2023/02/11 15:35:41;;;;;;;28.5;21.1;;;;;;;3.7;78.7;99690;;;;
2023/02/11 15:45:41;;;;;;;28.5;21.1;;;;;;;3.5;81;99710;;;;
2023/02/11 15:56:42;;;;;;;28.5;21.1;;;;;;;3.3;84.6;99720;;;;
2023/02/11 16:07:41;;;;;;;33;21.4;;;;;;;3.2;85.8;99720;;;;
2023/02/11 16:17:41;;;;;;;33;21.4;;;;;;;3.1;87.1;99720;;;;
2023/02/11 16:28:41;;;;;;;33;21.4;;;;;;;3;88.3;99730;;;;
2023/02/11 16:39:41;;;;;;;32.2;23;;;;;;;3.1;88.5;99730;;;;
2023/02/11 16:49:41;;;;;;;32.2;23;;;;;;;3.1;89;99740;;;;
2023/02/11 16:59:41;;;;;;;32.2;23;;;;;;;3.2;89.4;99760;;;;
2023/02/11 17:10:41;;;;;;;33.2;21.3;;;;;;;3.1;89.9;99760;;;;
2023/02/11 17:21:41;;;;;;;33.2;21.3;;;;;;;3;90.3;99750;;;;
2023/02/11 17:32:41;;;;;;;33.2;21.3;;;;;;;3;90.2;99760;;;;
2023/02/11 17:42:41;;;;;;;38.5;23.4;;;;;;;3.1;89.9;99780;;;;
2023/02/11 17:52:41;;;;;;;38.5;23.4;;;;;;;3.1;89.6;99790;;;;
2023/02/11 18:02:41;;;;;;;38.5;23.4;;;;;;;3.2;89.2;99780;;;;
2023/02/11 18:12:41;;;;;;;31.9;21.1;;;;;;;3.1;89.5;99760;;;;
2023/02/11 18:22:43;;;;;;;31.9;21.1;;;;;;;3.2;89.3;99780;;;;
2023/02/11 18:32:41;;;;;;;31.9;21.1;;;;;;;3.2;89;99790;;;;
2023/02/11 18:42:41;;;;;;;32.3;22.6;;;;;;;3.3;89.3;99800;;;;
2023/02/11 18:53:41;;;;;;;32.3;22.6;;;;;;;3.4;89.5;99810;;;;
2023/02/11 19:04:41;;;;;;;39.3;26.8;;;;;;;3.5;89.7;99820;;;;
2023/02/11 19:14:41;;;;;;;39.3;26.8;;;;;;;3.5;89.8;99820;;;;
2023/02/11 19:25:41;;;;;;;39.3;26.8;;;;;;;3.5;90.3;99820;;;;
2023/02/11 19:36:41;;;;;;;34;23.8;;;;;;;3.6;90.2;99830;;;;
2023/02/11 19:46:41;;;;;;;34;23.8;;;;;;;3.6;90.1;99840;;;;
2023/02/11 19:57:41;;;;;;;34;23.8;;;;;;;3.7;90.1;99850;;;;
2023/02/11 20:08:41;;;;;;;32.9;22.4;;;;;;;3.7;90.4;99840;;;;
2023/02/11 20:19:41;;;;;;;32.9;22.4;;;;;;;3.8;90.3;99860;;;;
2023/02/11 20:29:41;;;;;;;32.9;22.4;;;;;;;3.8;90.2;99850;;;;
2023/02/11 20:40:42;;;;;;;31.8;21.7;;;;;;;3.9;90.1;99850;;;;
2023/02/11 20:50:41;;;;;;;31.8;21.7;;;;;;;3.9;90.1;99850;;;;
2023/02/11 21:00:41;;;;;;;31.8;21.7;;;;;;;3.8;90.3;99850;;;;
2023/02/11 21:11:41;;;;;;;28.8;19.3;;;;;;;3.9;90.6;99870;;;;
2023/02/11 21:21:41;;;;;;;28.8;19.3;;;;;;;3.9;90.7;99870;;;;
2023/02/11 21:32:41;;;;;;;28.8;19.3;;;;;;;3.8;90.9;99880;;;;
2023/02/11 21:43:41;;;;;;;28.6;22;;;;;;;3.8;91.2;99890;;;;
2023/02/11 21:53:41;;;;;;;28.6;22;;;;;;;3.8;91.2;99900;;;;
2023/02/11 22:03:41;;;;;;;36.5;25.8;;;;;;;3.7;91.3;99910;;;;
2023/02/11 22:13:41;;;;;;;36.5;25.8;;;;;;;3.8;91.4;99920;;;;
2023/02/11 22:23:41;;;;;;;36.5;25.8;;;;;;;3.8;91.3;99940;;;;
2023/02/11 22:33:41;;;;;;;53.1;34.5;;;;;;;3.8;91.4;99940;;;;
2023/02/11 22:43:41;;;;;;;53.1;34.5;;;;;;;3.8;91.4;99940;;;;
2023/02/11 22:54:41;;;;;;;53.1;34.5;;;;;;;3.8;91.6;99950;;;;
2023/02/11 23:04:41;;;;;;;47.2;31.1;;;;;;;3.8;91.6;99960;;;;
2023/02/11 23:14:41;;;;;;;47.2;31.1;;;;;;;3.8;91.7;99970;;;;
2023/02/11 23:25:41;;;;;;;47.2;31.1;;;;;;;3.8;91.7;99970;;;;
2023/02/11 23:36:41;;;;;;;48.8;33;;;;;;;3.9;91.7;99970;;;;
2023/02/11 23:47:41;;;;;;;48.8;33;;;;;;;3.9;91.7;99990;;;;
2023/02/11 23:57:41;;;;;;;48.8;33;;;;;;;4;91.8;99990;;;;
